createdAt,value
2023-05-06T00:00:43.530Z,11.60
2023-05-06T00:01:43.508Z,9.60
2023-05-06T00:02:43.576Z,18.30
2023-05-06T00:03:43.783Z,11.10
2023-05-06T00:04:43.578Z,6.90
2023-05-06T00:05:43.508Z,11.00
2023-05-06T00:06:43.468Z,13.60
2023-05-06T00:07:43.455Z,7.00
2023-05-06T00:08:43.453Z,27.00
2023-05-06T00:09:43.429Z,9.00
2023-05-06T00:10:43.447Z,12.80
2023-05-06T00:11:43.404Z,29.90
2023-05-06T00:12:43.421Z,42.10
2023-05-06T00:13:43.390Z,37.30
2023-05-06T00:14:43.374Z,57.00
2023-05-06T00:15:43.363Z,54.60
2023-05-06T00:16:43.381Z,66.60
2023-05-06T00:17:43.414Z,43.70
2023-05-06T00:18:43.345Z,55.80
2023-05-06T00:19:43.325Z,147.70
2023-05-06T00:20:43.311Z,69.30
2023-05-06T00:21:43.298Z,107.30
2023-05-06T00:22:43.295Z,85.80
2023-05-06T00:23:43.273Z,74.60
2023-05-06T00:24:43.264Z,62.70
2023-05-06T00:25:43.253Z,66.20
2023-05-06T00:26:43.245Z,34.30
2023-05-06T00:27:43.230Z,100.60
2023-05-06T00:28:43.233Z,82.90
2023-05-06T00:29:43.205Z,76.30
2023-05-06T00:30:43.208Z,113.10
2023-05-06T00:31:43.209Z,92.60
2023-05-06T00:32:43.240Z,114.80
2023-05-06T00:33:43.163Z,139.60
2023-05-06T00:34:43.162Z,121.50
2023-05-06T00:35:43.147Z,98.60
2023-05-06T00:36:43.154Z,99.20
2023-05-06T00:37:43.123Z,84.80
2023-05-06T00:38:43.111Z,155.00
2023-05-06T00:39:43.100Z,106.30
2023-05-06T00:40:43.080Z,82.50
2023-05-06T00:41:43.093Z,67.60
2023-05-06T00:42:43.064Z,58.30
2023-05-06T00:43:43.079Z,101.50
2023-05-06T00:44:43.052Z,47.60
2023-05-06T00:45:43.073Z,79.50
2023-05-06T00:46:43.029Z,54.80
2023-05-06T00:47:43.049Z,57.70
2023-05-06T00:48:43.008Z,55.40
2023-05-06T00:49:43.028Z,55.80
2023-05-06T00:50:42.982Z,38.90
2023-05-06T00:51:42.972Z,72.70
2023-05-06T00:52:42.959Z,85.30
2023-05-06T00:53:42.942Z,50.50
2023-05-06T00:54:42.928Z,53.00
2023-05-06T00:55:42.932Z,52.90
2023-05-06T00:56:42.907Z,54.70
2023-05-06T00:57:42.900Z,94.20
2023-05-06T00:58:42.888Z,66.50
2023-05-06T00:59:42.886Z,25.80
2023-05-06T01:00:42.876Z,56.60
2023-05-06T01:01:42.876Z,61.60
2023-05-06T01:02:47.424Z,56.20
2023-05-06T01:03:42.938Z,52.50
2023-05-06T01:04:42.877Z,62.30
2023-05-06T01:05:42.815Z,69.00
2023-05-06T01:06:42.797Z,54.10
2023-05-06T01:07:42.800Z,51.30
2023-05-06T01:08:42.788Z,72.50
2023-05-06T01:09:42.787Z,34.60
2023-05-06T01:10:42.753Z,41.70
2023-05-06T01:11:42.749Z,63.00
2023-05-06T01:12:42.769Z,62.90
2023-05-06T01:13:42.734Z,71.00
2023-05-06T01:14:42.717Z,74.10
2023-05-06T01:15:42.703Z,83.20
2023-05-06T01:16:42.717Z,94.20
2023-05-06T01:17:42.714Z,82.80
2023-05-06T01:18:42.678Z,62.40
2023-05-06T01:19:42.658Z,89.00
2023-05-06T01:20:42.653Z,69.70
2023-05-06T01:21:42.638Z,62.60
2023-05-06T01:22:42.631Z,82.10
2023-05-06T01:23:42.626Z,73.00
2023-05-06T01:24:42.621Z,101.20
2023-05-06T01:25:42.614Z,120.30
2023-05-06T01:26:42.579Z,154.20
2023-05-06T01:27:42.582Z,160.40
2023-05-06T01:28:42.570Z,176.10
2023-05-06T01:29:42.556Z,169.20
2023-05-06T01:30:42.550Z,164.10
2023-05-06T01:31:42.531Z,166.80
2023-05-06T01:32:42.565Z,126.50
2023-05-06T01:33:42.510Z,108.20
2023-05-06T01:34:42.504Z,83.20
2023-05-06T01:35:42.517Z,102.10
2023-05-06T01:36:42.480Z,67.80
2023-05-06T01:37:42.467Z,60.10
2023-05-06T01:38:42.457Z,53.60
2023-05-06T01:39:42.438Z,79.10
2023-05-06T01:40:42.431Z,84.00
2023-05-06T01:41:42.440Z,83.30
2023-05-06T01:42:42.420Z,73.50
2023-05-06T01:43:42.386Z,97.30
2023-05-06T01:44:42.447Z,99.20
2023-05-06T01:45:42.375Z,61.50
2023-05-06T01:46:42.516Z,49.30
2023-05-06T01:47:42.421Z,78.90
2023-05-06T01:48:42.414Z,57.90
2023-05-06T01:49:42.389Z,55.90
2023-05-06T01:50:42.316Z,76.40
2023-05-06T01:51:42.311Z,72.50
2023-05-06T01:52:42.300Z,60.00
2023-05-06T01:53:42.287Z,74.30
2023-05-06T01:54:42.288Z,76.90
2023-05-06T01:55:42.274Z,76.80
2023-05-06T01:56:42.258Z,49.50
2023-05-06T01:57:42.242Z,37.10
2023-05-06T01:58:42.231Z,40.60
2023-05-06T01:59:42.229Z,59.80
2023-05-06T02:00:42.225Z,67.40
2023-05-06T02:01:42.227Z,72.70
2023-05-06T02:02:42.252Z,87.60
2023-05-06T02:03:42.273Z,66.00
2023-05-06T02:04:42.177Z,41.30
2023-05-06T02:05:42.159Z,38.70
2023-05-06T02:06:42.173Z,56.80
2023-05-06T02:07:42.122Z,44.20
2023-05-06T02:08:42.117Z,30.00
2023-05-06T02:09:42.111Z,39.80
2023-05-06T02:10:42.114Z,37.60
2023-05-06T02:11:42.081Z,45.10
2023-05-06T02:12:42.111Z,36.60
2023-05-06T02:13:42.061Z,30.10
2023-05-06T02:14:42.063Z,29.60
2023-05-06T02:15:42.040Z,56.00
2023-05-06T02:16:42.030Z,33.70
2023-05-06T02:17:42.039Z,51.60
2023-05-06T02:18:42.007Z,32.80
2023-05-06T02:19:42.037Z,52.00
2023-05-06T02:20:41.983Z,46.80
2023-05-06T02:21:41.968Z,37.60
2023-05-06T02:22:41.998Z,47.30
2023-05-06T02:23:41.956Z,60.20
2023-05-06T02:24:41.951Z,55.90
2023-05-06T02:25:41.928Z,49.60
2023-05-06T02:26:42.038Z,54.10
2023-05-06T02:27:41.913Z,49.00
2023-05-06T02:28:41.909Z,36.00
2023-05-06T02:29:41.885Z,36.70
2023-05-06T02:30:41.880Z,22.90
2023-05-06T02:31:41.927Z,21.80
2023-05-06T02:32:41.882Z,27.50
2023-05-06T02:33:41.855Z,35.70
2023-05-06T02:34:41.836Z,33.40
2023-05-06T02:35:41.810Z,33.80
2023-05-06T02:36:41.806Z,31.10
2023-05-06T02:37:41.799Z,32.20
2023-05-06T02:38:41.810Z,34.70
2023-05-06T02:39:41.781Z,28.70
2023-05-06T02:40:41.765Z,25.90
2023-05-06T02:41:41.746Z,14.90
2023-05-06T02:42:41.793Z,16.10
2023-05-06T02:43:41.730Z,16.40
2023-05-06T02:44:41.731Z,20.70
2023-05-06T02:45:41.724Z,14.70
2023-05-06T02:46:41.697Z,17.80
2023-05-06T02:47:41.744Z,19.00
2023-05-06T02:48:41.670Z,14.90
2023-05-06T02:49:41.657Z,18.10
2023-05-06T02:50:41.649Z,19.40
2023-05-06T02:51:41.649Z,15.80
2023-05-06T02:52:41.638Z,14.80
2023-05-06T02:53:41.612Z,18.80
2023-05-06T02:54:41.612Z,20.30
2023-05-06T02:55:41.590Z,20.90
2023-05-06T02:56:41.596Z,22.50
2023-05-06T02:57:41.576Z,26.10
2023-05-06T02:58:41.580Z,15.80
2023-05-06T02:59:41.544Z,21.00
2023-05-06T03:00:41.544Z,24.80
2023-05-06T03:01:41.556Z,21.00
2023-05-06T03:02:41.553Z,16.20
2023-05-06T03:03:41.500Z,16.80
2023-05-06T03:04:41.503Z,20.50
2023-05-06T03:05:41.481Z,16.70
2023-05-06T03:06:41.488Z,18.40
2023-05-06T03:07:41.477Z,17.30
2023-05-06T03:08:41.462Z,13.30
2023-05-06T03:09:41.439Z,25.10
2023-05-06T03:10:41.434Z,19.10
2023-05-06T03:11:41.421Z,19.70
2023-05-06T03:12:41.425Z,19.50
2023-05-06T03:13:41.388Z,15.00
2023-05-06T03:14:41.398Z,15.50
2023-05-06T03:15:41.381Z,19.30
2023-05-06T03:16:41.425Z,28.30
2023-05-06T03:17:41.480Z,33.10
2023-05-06T03:18:41.345Z,23.90
2023-05-06T03:19:41.324Z,32.00
2023-05-06T03:20:41.327Z,42.60
2023-05-06T03:21:41.390Z,30.50
2023-05-06T03:22:41.307Z,21.80
2023-05-06T03:23:41.275Z,21.70
2023-05-06T03:24:41.280Z,54.50
2023-05-06T03:25:41.278Z,39.50
2023-05-06T03:26:41.256Z,49.00
2023-05-06T03:27:41.233Z,40.20
2023-05-06T03:28:41.229Z,43.00
2023-05-06T03:29:41.233Z,30.40
2023-05-06T03:30:41.204Z,24.50
2023-05-06T03:31:41.201Z,40.70
2023-05-06T03:32:41.210Z,32.20
2023-05-06T03:33:41.173Z,56.30
2023-05-06T03:34:41.180Z,60.60
2023-05-06T03:35:41.160Z,49.10
2023-05-06T03:36:41.135Z,50.40
2023-05-06T03:37:41.128Z,51.10
2023-05-06T03:38:41.122Z,40.60
2023-05-06T03:39:41.122Z,65.70
2023-05-06T03:40:41.087Z,52.60
2023-05-06T03:41:41.080Z,37.50
2023-05-06T03:42:41.087Z,52.40
2023-05-06T03:43:41.077Z,45.40
2023-05-06T03:44:41.047Z,48.30
2023-05-06T03:45:41.040Z,71.10
2023-05-06T03:46:41.092Z,51.40
2023-05-06T03:47:41.052Z,48.00
2023-05-06T03:48:41.010Z,53.80
2023-05-06T03:49:40.992Z,78.40
2023-05-06T03:50:40.991Z,54.40
2023-05-06T03:51:40.975Z,106.20
2023-05-06T03:52:40.965Z,63.40
2023-05-06T03:53:40.962Z,59.80
2023-05-06T03:54:40.934Z,70.90
2023-05-06T03:55:40.924Z,79.20
2023-05-06T03:56:40.919Z,67.30
2023-05-06T03:57:40.912Z,111.00
2023-05-06T03:58:40.903Z,89.60
2023-05-06T03:59:40.884Z,122.40
2023-05-06T04:00:40.863Z,128.20
2023-05-06T04:01:40.890Z,120.50
2023-05-06T04:02:41.033Z,86.30
2023-05-06T04:03:40.964Z,146.60
2023-05-06T04:04:40.821Z,104.50
2023-05-06T04:05:40.821Z,107.40
2023-05-06T04:06:40.800Z,162.60
2023-05-06T04:07:40.807Z,136.50
2023-05-06T04:08:40.788Z,150.60
2023-05-06T04:09:40.766Z,149.60
2023-05-06T04:10:40.757Z,179.70
2023-05-06T04:11:40.760Z,171.50
2023-05-06T04:12:40.867Z,151.00
2023-05-06T04:13:40.727Z,245.60
2023-05-06T04:14:40.716Z,326.40
2023-05-06T04:15:40.709Z,330.00
2023-05-06T04:16:40.749Z,290.50
2023-05-06T04:17:40.714Z,197.50
2023-05-06T04:18:40.672Z,188.50
2023-05-06T04:19:40.657Z,239.80
2023-05-06T04:20:40.649Z,164.20
2023-05-06T04:21:40.647Z,120.60
2023-05-06T04:22:40.620Z,139.90
2023-05-06T04:23:40.620Z,171.70
2023-05-06T04:24:40.595Z,191.60
2023-05-06T04:25:40.605Z,240.10
2023-05-06T04:26:40.610Z,196.90
2023-05-06T04:27:40.571Z,194.40
2023-05-06T04:28:40.549Z,177.00
2023-05-06T04:29:40.548Z,171.40
2023-05-06T04:30:40.544Z,188.90
2023-05-06T04:31:40.592Z,115.10
2023-05-06T04:32:40.544Z,158.70
2023-05-06T04:33:40.507Z,199.10
2023-05-06T04:34:40.486Z,110.90
2023-05-06T04:35:40.494Z,172.60
2023-05-06T04:36:40.800Z,121.10
2023-05-06T04:37:40.462Z,151.40
2023-05-06T04:38:40.445Z,138.20
2023-05-06T04:39:40.446Z,119.30
2023-05-06T04:40:40.446Z,87.50
2023-05-06T04:41:40.415Z,141.30
2023-05-06T04:42:40.408Z,106.40
2023-05-06T04:43:40.396Z,107.50
2023-05-06T04:44:40.385Z,151.50
2023-05-06T04:45:40.446Z,58.20
2023-05-06T04:46:40.360Z,155.10
2023-05-06T04:47:40.422Z,123.90
2023-05-06T04:48:40.365Z,132.70
2023-05-06T04:49:40.343Z,72.50
2023-05-06T04:50:40.332Z,113.20
2023-05-06T04:51:40.309Z,92.60
2023-05-06T04:52:40.331Z,92.00
2023-05-06T04:53:40.300Z,147.90
2023-05-06T04:54:40.334Z,138.90
2023-05-06T04:55:40.276Z,127.20
2023-05-06T04:56:40.264Z,156.90
2023-05-06T04:57:40.246Z,134.40
2023-05-06T04:58:40.247Z,134.70
2023-05-06T04:59:40.243Z,124.80
2023-05-06T05:00:40.220Z,114.50
2023-05-06T05:01:40.253Z,163.20
2023-05-06T05:02:40.298Z,123.10
2023-05-06T05:03:40.227Z,157.90
2023-05-06T05:04:40.161Z,191.00
2023-05-06T05:05:40.156Z,140.80
2023-05-06T05:06:40.139Z,135.00
2023-05-06T05:07:40.187Z,98.90
2023-05-06T05:08:40.118Z,110.00
2023-05-06T05:09:40.115Z,108.90
2023-05-06T05:10:40.094Z,103.10
2023-05-06T05:11:40.096Z,119.70
2023-05-06T05:12:40.126Z,139.00
2023-05-06T05:13:40.067Z,140.30
2023-05-06T05:14:40.131Z,120.60
2023-05-06T05:15:40.139Z,179.30
2023-05-06T05:16:40.125Z,118.20
2023-05-06T05:17:40.044Z,171.00
2023-05-06T05:18:40.011Z,156.30
2023-05-06T05:19:40.002Z,108.70
2023-05-06T05:20:39.988Z,144.10
2023-05-06T05:21:39.992Z,118.90
2023-05-06T05:22:39.964Z,94.20
2023-05-06T05:23:39.958Z,136.20
2023-05-06T05:24:39.941Z,112.40
2023-05-06T05:25:39.944Z,107.50
2023-05-06T05:26:39.932Z,124.40
2023-05-06T05:27:39.909Z,108.50
2023-05-06T05:28:39.902Z,99.90
2023-05-06T05:29:39.889Z,94.00
2023-05-06T05:30:39.873Z,98.70
2023-05-06T05:31:39.969Z,158.00
2023-05-06T05:32:39.901Z,67.40
2023-05-06T05:33:39.943Z,82.70
2023-05-06T05:34:39.830Z,70.80
2023-05-06T05:35:39.836Z,125.90
2023-05-06T05:36:39.823Z,88.00
2023-05-06T05:37:39.823Z,73.80
2023-05-06T05:38:39.792Z,87.50
2023-05-06T05:39:39.787Z,103.20
2023-05-06T05:40:39.775Z,95.60
2023-05-06T05:41:39.758Z,82.80
2023-05-06T05:42:39.740Z,81.70
2023-05-06T05:43:39.734Z,103.00
2023-05-06T05:44:39.730Z,130.10
2023-05-06T05:45:39.723Z,63.30
2023-05-06T05:46:39.728Z,96.70
2023-05-06T05:47:39.761Z,77.00
2023-05-06T05:48:39.754Z,74.80
2023-05-06T05:49:39.668Z,51.70
2023-05-06T05:50:39.672Z,91.90
2023-05-06T05:51:39.647Z,97.80
2023-05-06T05:52:39.665Z,104.90
2023-05-06T05:53:39.618Z,62.40
2023-05-06T05:54:39.633Z,78.50
2023-05-06T05:55:39.609Z,76.60
2023-05-06T05:56:39.595Z,91.20
2023-05-06T05:57:39.593Z,113.80
2023-05-06T05:58:39.590Z,73.70
2023-05-06T05:59:39.568Z,75.00
2023-05-06T06:00:39.548Z,66.30
2023-05-06T06:01:39.534Z,91.70
2023-05-06T06:02:39.661Z,111.60
2023-05-06T06:03:39.709Z,95.50
2023-05-06T06:04:39.587Z,119.30
2023-05-06T06:05:39.486Z,103.70
2023-05-06T06:06:39.475Z,94.60
2023-05-06T06:07:39.482Z,73.30
2023-05-06T06:08:39.453Z,110.70
2023-05-06T06:09:39.454Z,128.10
2023-05-06T06:10:39.434Z,150.70
2023-05-06T06:11:39.417Z,107.50
2023-05-06T06:12:39.425Z,78.80
2023-05-06T06:13:39.411Z,91.40
2023-05-06T06:14:39.439Z,105.10
2023-05-06T06:15:39.373Z,68.30
2023-05-06T06:16:39.435Z,116.20
2023-05-06T06:17:39.395Z,122.70
2023-05-06T06:18:39.365Z,74.80
2023-05-06T06:19:39.325Z,103.50
2023-05-06T06:20:39.333Z,97.40
2023-05-06T06:21:39.302Z,69.50
2023-05-06T06:22:39.306Z,75.80
2023-05-06T06:23:39.294Z,96.50
2023-05-06T06:24:39.280Z,92.10
2023-05-06T06:25:39.272Z,93.70
2023-05-06T06:26:39.255Z,84.80
2023-05-06T06:27:39.259Z,65.90
2023-05-06T06:28:39.243Z,72.10
2023-05-06T06:29:39.220Z,102.60
2023-05-06T06:30:39.210Z,87.60
2023-05-06T06:31:40.698Z,107.00
2023-05-06T06:32:39.200Z,72.70
2023-05-06T06:33:39.181Z,74.20
2023-05-06T06:34:39.159Z,76.60
2023-05-06T06:35:39.161Z,72.50
2023-05-06T06:36:39.136Z,73.30
2023-05-06T06:37:39.144Z,64.00
2023-05-06T06:38:39.117Z,89.80
2023-05-06T06:39:39.130Z,73.90
2023-05-06T06:40:39.109Z,62.50
2023-05-06T06:41:39.098Z,80.80
2023-05-06T06:42:39.083Z,46.30
2023-05-06T06:43:39.064Z,51.30
2023-05-06T06:44:39.055Z,41.40
2023-05-06T06:45:39.089Z,58.60
2023-05-06T06:46:39.043Z,48.50
2023-05-06T06:47:39.036Z,48.10
2023-05-06T06:48:39.007Z,76.50
2023-05-06T06:49:39.006Z,75.80
2023-05-06T06:50:38.994Z,51.00
2023-05-06T06:51:38.992Z,56.40
2023-05-06T06:52:38.961Z,64.50
2023-05-06T06:53:38.957Z,59.20
2023-05-06T06:54:38.944Z,42.40
2023-05-06T06:55:38.937Z,67.00
2023-05-06T06:56:38.931Z,55.20
2023-05-06T06:57:38.916Z,44.00
2023-05-06T06:58:38.890Z,50.20
2023-05-06T06:59:38.898Z,57.70
2023-05-06T07:00:38.896Z,66.60
2023-05-06T07:01:38.970Z,68.00
2023-05-06T07:02:38.887Z,56.30
2023-05-06T07:03:38.853Z,53.10
2023-05-06T07:04:39.029Z,80.90
2023-05-06T07:05:38.850Z,67.30
2023-05-06T07:06:38.832Z,64.80
2023-05-06T07:07:38.801Z,62.30
2023-05-06T07:08:38.816Z,75.10
2023-05-06T07:09:40.100Z,62.60
2023-05-06T07:10:38.789Z,61.20
2023-05-06T07:11:38.755Z,49.20
2023-05-06T07:12:38.831Z,50.50
2023-05-06T07:13:38.745Z,41.90
2023-05-06T07:14:38.733Z,55.70
2023-05-06T07:15:38.734Z,42.90
2023-05-06T07:16:38.724Z,46.30
2023-05-06T07:17:38.743Z,40.00
2023-05-06T07:18:38.673Z,45.90
2023-05-06T07:19:38.686Z,42.90
2023-05-06T07:20:38.664Z,35.60
2023-05-06T07:21:38.647Z,39.70
2023-05-06T07:22:38.631Z,40.50
2023-05-06T07:23:38.635Z,35.50
2023-05-06T07:24:38.618Z,42.10
2023-05-06T07:25:38.622Z,34.90
2023-05-06T07:26:38.608Z,44.90
2023-05-06T07:27:38.576Z,38.70
2023-05-06T07:28:38.576Z,39.90
2023-05-06T07:29:38.572Z,36.10
2023-05-06T07:30:38.574Z,42.10
2023-05-06T07:31:38.675Z,35.50
2023-05-06T07:32:38.592Z,37.60
2023-05-06T07:33:38.548Z,32.20
2023-05-06T07:34:38.547Z,35.40
2023-05-06T07:35:38.530Z,28.90
2023-05-06T07:36:40.028Z,30.20
2023-05-06T07:37:38.488Z,34.60
2023-05-06T07:38:38.465Z,32.50
2023-05-06T07:39:38.456Z,33.40
2023-05-06T07:40:38.433Z,35.60
2023-05-06T07:41:38.425Z,31.30
2023-05-06T07:42:38.767Z,30.20
2023-05-06T07:43:38.414Z,28.30
2023-05-06T07:44:38.392Z,26.20
2023-05-06T07:45:38.388Z,25.10
2023-05-06T07:46:38.540Z,22.80
2023-05-06T07:47:38.442Z,23.30
2023-05-06T07:48:38.356Z,25.00
2023-05-06T07:49:38.339Z,28.30
2023-05-06T07:50:38.324Z,24.00
2023-05-06T07:51:38.314Z,27.70
2023-05-06T07:52:38.312Z,33.40
2023-05-06T07:53:38.290Z,38.20
2023-05-06T07:54:38.276Z,31.50
2023-05-06T07:55:38.267Z,32.90
2023-05-06T07:56:38.255Z,29.60
2023-05-06T07:57:38.267Z,26.70
2023-05-06T07:58:38.244Z,28.10
2023-05-06T07:59:38.224Z,26.20
2023-05-06T08:00:38.210Z,26.90
2023-05-06T08:01:38.218Z,23.30
2023-05-06T08:02:38.287Z,22.60
2023-05-06T08:03:38.395Z,22.50
2023-05-06T08:04:38.193Z,21.80
2023-05-06T08:05:38.161Z,22.00
2023-05-06T08:06:38.158Z,22.70
2023-05-06T08:07:38.136Z,21.40
2023-05-06T08:08:38.122Z,23.00
2023-05-06T08:09:38.141Z,21.80
2023-05-06T08:10:38.097Z,21.10
2023-05-06T08:11:38.102Z,20.60
2023-05-06T08:12:38.300Z,19.30
2023-05-06T08:13:38.075Z,23.10
2023-05-06T08:14:38.062Z,19.60
2023-05-06T08:15:38.058Z,21.20
2023-05-06T08:16:38.114Z,21.90
2023-05-06T08:17:38.076Z,20.80
2023-05-06T08:18:38.009Z,22.10
2023-05-06T08:19:37.998Z,25.00
2023-05-06T08:20:38.001Z,20.40
2023-05-06T08:21:38.000Z,19.70
2023-05-06T08:22:37.967Z,18.70
2023-05-06T08:23:37.967Z,19.80
2023-05-06T08:24:37.947Z,20.40
2023-05-06T08:25:37.956Z,19.00
2023-05-06T08:26:37.928Z,18.40
2023-05-06T08:27:37.918Z,19.30
2023-05-06T08:28:37.907Z,18.30
2023-05-06T08:29:37.907Z,17.90
2023-05-06T08:30:37.896Z,20.40
2023-05-06T08:31:37.933Z,20.10
2023-05-06T08:32:37.894Z,20.30
2023-05-06T08:33:37.857Z,19.60
2023-05-06T08:34:37.851Z,18.20
2023-05-06T08:35:37.848Z,18.60
2023-05-06T08:36:37.827Z,19.40
2023-05-06T08:37:37.807Z,17.00
2023-05-06T08:38:37.794Z,18.00
2023-05-06T08:39:37.792Z,20.00
2023-05-06T08:40:37.771Z,20.50
2023-05-06T08:41:37.765Z,19.80
2023-05-06T08:42:37.749Z,20.30
2023-05-06T08:43:37.740Z,19.40
2023-05-06T08:44:37.736Z,19.80
2023-05-06T08:45:37.746Z,21.60
2023-05-06T08:46:37.701Z,19.20
2023-05-06T08:47:37.749Z,20.40
2023-05-06T08:48:37.692Z,21.40
2023-05-06T08:49:37.684Z,21.00
2023-05-06T08:50:37.664Z,20.00
2023-05-06T08:51:37.650Z,19.50
2023-05-06T08:52:37.639Z,19.90
2023-05-06T08:53:37.643Z,20.10
2023-05-06T08:54:37.613Z,20.10
2023-05-06T08:55:37.644Z,19.50
2023-05-06T08:56:37.612Z,21.10
2023-05-06T08:57:37.588Z,19.60
2023-05-06T08:58:37.578Z,20.60
2023-05-06T08:59:37.561Z,22.50
2023-05-06T09:00:37.545Z,21.50
2023-05-06T09:01:37.692Z,23.00
2023-05-06T09:02:38.390Z,22.70
2023-05-06T09:03:37.540Z,23.30
2023-05-06T09:04:37.501Z,23.30
2023-05-06T09:05:37.494Z,22.40
2023-05-06T09:06:37.515Z,22.00
2023-05-06T09:07:37.491Z,20.30
2023-05-06T09:08:37.462Z,21.60
2023-05-06T09:09:37.462Z,22.50
2023-05-06T09:10:37.440Z,23.70
2023-05-06T09:11:37.432Z,22.00
2023-05-06T09:12:37.433Z,21.00
2023-05-06T09:13:37.406Z,22.50
2023-05-06T09:14:37.387Z,19.40
2023-05-06T09:15:37.383Z,20.10
2023-05-06T09:16:37.408Z,20.30
2023-05-06T09:17:37.422Z,21.20
2023-05-06T09:18:37.354Z,21.10
2023-05-06T09:19:37.339Z,21.70
2023-05-06T09:20:37.324Z,21.40
2023-05-06T09:21:37.331Z,20.60
2023-05-06T09:22:37.304Z,19.40
2023-05-06T09:23:37.321Z,22.10
2023-05-06T09:24:37.281Z,21.70
2023-05-06T09:25:37.274Z,22.30
2023-05-06T09:26:37.265Z,20.30
2023-05-06T09:27:37.255Z,21.70
2023-05-06T09:28:37.244Z,21.50
2023-05-06T09:29:37.234Z,19.40
2023-05-06T09:30:37.222Z,21.40
2023-05-06T09:31:37.377Z,22.90
2023-05-06T09:32:40.050Z,19.90
2023-05-06T09:33:37.183Z,22.30
2023-05-06T09:34:37.178Z,19.60
2023-05-06T09:35:37.178Z,19.20
2023-05-06T09:36:37.151Z,19.00
2023-05-06T09:37:37.134Z,19.80
2023-05-06T09:38:37.132Z,21.60
2023-05-06T09:39:37.122Z,20.70
2023-05-06T09:40:37.115Z,19.70
2023-05-06T09:41:37.093Z,18.50
2023-05-06T09:42:37.085Z,21.40
2023-05-06T09:43:37.068Z,21.30
2023-05-06T09:44:37.078Z,20.60
2023-05-06T09:45:37.075Z,23.30
2023-05-06T09:46:37.093Z,21.90
2023-05-06T09:47:37.092Z,22.00
2023-05-06T09:48:37.017Z,23.90
2023-05-06T09:49:37.022Z,24.00
2023-05-06T09:50:36.997Z,24.90
2023-05-06T09:51:36.980Z,25.00
2023-05-06T09:52:36.988Z,24.90
2023-05-06T09:53:36.976Z,25.70
2023-05-06T09:54:36.979Z,24.60
2023-05-06T09:55:36.947Z,26.60
2023-05-06T09:56:36.985Z,24.10
2023-05-06T09:57:37.073Z,25.20
2023-05-06T09:58:36.983Z,26.00
2023-05-06T09:59:36.916Z,26.60
2023-05-06T10:00:36.893Z,27.50
2023-05-06T10:01:37.827Z,27.50
2023-05-06T10:02:37.082Z,29.60
2023-05-06T10:03:36.986Z,28.70
2023-05-06T10:04:37.090Z,26.00
2023-05-06T10:05:36.861Z,29.20
2023-05-06T10:06:36.936Z,26.60
2023-05-06T10:07:36.819Z,29.50
2023-05-06T10:08:36.798Z,28.70
2023-05-06T10:09:36.787Z,27.70
2023-05-06T10:10:36.769Z,26.90
2023-05-06T10:11:36.971Z,29.10
2023-05-06T10:12:36.804Z,28.40
2023-05-06T10:13:36.749Z,29.10
2023-05-06T10:14:36.725Z,26.10
2023-05-06T10:15:36.718Z,27.30
2023-05-06T10:16:36.897Z,28.20
2023-05-06T10:17:36.740Z,28.40
2023-05-06T10:18:36.705Z,26.50
2023-05-06T10:19:36.669Z,26.00
2023-05-06T10:20:36.667Z,28.50
2023-05-06T10:21:36.660Z,25.80
2023-05-06T10:22:36.661Z,24.10
2023-05-06T10:23:36.635Z,27.00
2023-05-06T10:24:36.614Z,28.20
2023-05-06T10:25:36.626Z,25.20
2023-05-06T10:26:36.590Z,24.90
2023-05-06T10:27:36.661Z,24.30
2023-05-06T10:28:36.567Z,23.60
2023-05-06T10:29:36.624Z,23.30
2023-05-06T10:30:36.547Z,23.70
2023-05-06T10:31:36.633Z,22.80
2023-05-06T10:32:36.596Z,21.90
2023-05-06T10:33:36.513Z,22.60
2023-05-06T10:34:36.493Z,23.60
2023-05-06T10:35:36.490Z,23.70
2023-05-06T10:36:36.488Z,23.00
2023-05-06T10:37:36.470Z,22.00
2023-05-06T10:38:36.451Z,26.90
2023-05-06T10:39:36.448Z,21.50
2023-05-06T10:40:36.439Z,21.40
2023-05-06T10:41:36.433Z,21.30
2023-05-06T10:42:36.404Z,21.90
2023-05-06T10:43:36.404Z,22.20
2023-05-06T10:44:36.382Z,19.50
2023-05-06T10:45:36.429Z,19.30
2023-05-06T10:46:36.370Z,19.50
2023-05-06T10:47:36.372Z,19.90
2023-05-06T10:48:36.341Z,21.00
2023-05-06T10:49:36.334Z,20.90
2023-05-06T10:50:36.334Z,20.80
2023-05-06T10:51:36.399Z,20.20
2023-05-06T10:52:36.289Z,23.20
2023-05-06T10:53:36.321Z,21.60
2023-05-06T10:54:36.268Z,20.90
2023-05-06T10:55:36.274Z,23.40
2023-05-06T10:56:36.299Z,22.70
2023-05-06T10:57:36.240Z,22.80
2023-05-06T10:58:36.231Z,22.50
2023-05-06T10:59:36.216Z,21.90
2023-05-06T11:00:36.206Z,21.80
2023-05-06T11:01:36.387Z,19.50
2023-05-06T11:02:36.248Z,21.20
2023-05-06T11:03:36.271Z,21.30
2023-05-06T11:04:36.173Z,22.00
2023-05-06T11:05:36.163Z,19.50
2023-05-06T11:06:36.138Z,18.60
2023-05-06T11:07:36.131Z,19.60
2023-05-06T11:08:36.114Z,20.80
2023-05-06T11:09:36.120Z,21.90
2023-05-06T11:10:36.094Z,19.80
2023-05-06T11:11:36.090Z,19.20
2023-05-06T11:12:36.128Z,20.40
2023-05-06T11:13:36.066Z,19.80
2023-05-06T11:14:36.104Z,19.60
2023-05-06T11:15:36.044Z,17.80
2023-05-06T11:16:38.162Z,17.40
2023-05-06T11:17:36.044Z,17.40
2023-05-06T11:18:36.018Z,18.00
2023-05-06T11:19:36.013Z,17.00
2023-05-06T11:20:35.983Z,17.30
2023-05-06T11:21:35.980Z,16.70
2023-05-06T11:22:35.967Z,18.20
2023-05-06T11:23:35.967Z,15.20
2023-05-06T11:24:35.941Z,17.40
2023-05-06T11:25:35.935Z,15.80
2023-05-06T11:26:35.919Z,16.50
2023-05-06T11:27:35.911Z,16.40
2023-05-06T11:28:35.906Z,16.70
2023-05-06T11:29:35.895Z,16.90
2023-05-06T11:30:35.873Z,17.70
2023-05-06T11:31:35.909Z,17.00
2023-05-06T11:32:35.873Z,13.80
2023-05-06T11:33:35.856Z,15.10
2023-05-06T11:34:35.831Z,15.90
2023-05-06T11:35:35.839Z,15.40
2023-05-06T11:36:35.809Z,15.00
2023-05-06T11:37:35.870Z,13.30
2023-05-06T11:38:35.788Z,13.80
2023-05-06T11:39:40.341Z,13.50
2023-05-06T11:40:35.769Z,12.50
2023-05-06T11:41:35.761Z,14.40
2023-05-06T11:42:35.754Z,13.90
2023-05-06T11:43:35.756Z,13.10
2023-05-06T11:44:35.762Z,13.10
2023-05-06T11:45:35.714Z,12.80
2023-05-06T11:46:35.728Z,13.10
2023-05-06T11:47:35.757Z,12.40
2023-05-06T11:48:35.680Z,15.90
2023-05-06T11:49:36.875Z,15.10
2023-05-06T11:50:35.662Z,14.50
2023-05-06T11:51:35.671Z,12.80
2023-05-06T11:52:35.635Z,15.20
2023-05-06T11:53:35.630Z,12.10
2023-05-06T11:54:35.638Z,12.30
2023-05-06T11:55:35.604Z,12.70
2023-05-06T11:56:35.608Z,12.00
2023-05-06T11:57:35.583Z,11.60
2023-05-06T11:58:35.588Z,12.10
2023-05-06T11:59:35.560Z,13.40
2023-05-06T12:00:35.557Z,11.00
2023-05-06T12:01:35.546Z,12.40
2023-05-06T12:02:35.624Z,12.80
2023-05-06T12:03:35.644Z,13.30
2023-05-06T12:04:35.580Z,12.30
2023-05-06T12:05:35.510Z,13.00
2023-05-06T12:06:35.498Z,16.20
2023-05-06T12:07:35.469Z,12.50
2023-05-06T12:08:35.464Z,12.50
2023-05-06T12:09:35.446Z,12.00
2023-05-06T12:10:35.440Z,13.20
2023-05-06T12:11:35.429Z,13.90
2023-05-06T12:12:35.436Z,12.40
2023-05-06T12:13:35.409Z,12.80
2023-05-06T12:14:35.416Z,12.30
2023-05-06T12:15:35.388Z,14.00
2023-05-06T12:16:35.427Z,13.20
2023-05-06T12:17:35.371Z,12.70
2023-05-06T12:18:35.349Z,13.60
2023-05-06T12:19:35.341Z,12.60
2023-05-06T12:20:35.336Z,12.60
2023-05-06T12:21:35.311Z,10.70
2023-05-06T12:22:35.296Z,12.60
2023-05-06T12:23:35.320Z,11.00
2023-05-06T12:24:35.285Z,13.10
2023-05-06T12:25:35.294Z,12.90
2023-05-06T12:26:35.258Z,13.00
2023-05-06T12:27:35.285Z,13.00
2023-05-06T12:28:35.259Z,12.30
2023-05-06T12:29:35.290Z,10.70
2023-05-06T12:30:35.214Z,10.30
2023-05-06T12:31:35.271Z,12.30
2023-05-06T12:32:35.220Z,11.50
2023-05-06T12:33:35.186Z,13.20
2023-05-06T12:34:35.172Z,11.70
2023-05-06T12:35:35.175Z,11.90
2023-05-06T12:36:35.148Z,13.90
2023-05-06T12:37:35.132Z,11.30
2023-05-06T12:38:35.138Z,10.90
2023-05-06T12:39:35.123Z,11.60
2023-05-06T12:40:35.132Z,12.20
2023-05-06T12:41:35.092Z,12.10
2023-05-06T12:42:35.082Z,12.00
2023-05-06T12:43:35.083Z,12.50
2023-05-06T12:44:35.099Z,11.30
2023-05-06T12:45:35.103Z,11.00
2023-05-06T12:46:35.066Z,13.90
2023-05-06T12:47:35.078Z,10.80
2023-05-06T12:48:35.042Z,10.10